TAF Text Data
IDs:
Format:
Raw Decoded Include METAR

Data at: 0212 UTC 22 Jan 2020

Region: TOP
KATL 220131Z 2202/2306 33006KT P6SM SKC
  FM220800 03004KT P6SM SKC
  FM221400 07009KT P6SM FEW250
  FM230300 09005KT P6SM BKN250


KBOS 212329Z 2200/2306 03004KT P6SM FEW035 FEW130 FEW250
  FM220100 29004KT P6SM FEW200
  FM221700 25003KT P6SM FEW250
  FM222200 21005KT P6SM SKC


KBWI 212342Z 2200/2306 33004KT P6SM SCT250
  FM221200 VRB03KT P6SM FEW250


KCLE 212340Z 2200/2306 21006KT P6SM SCT250
  FM221200 20010KT P6SM BKN250


KCLT 212325Z 2200/2306 01006KT P6SM SKC
  FM230100 05004KT P6SM SCT250


KCVG 212320Z 2200/2306 VRB03KT P6SM SCT250
  FM221400 17006KT P6SM BKN250
  FM230000 13004KT P6SM BKN250


KDCA 212342Z 2200/2306 35009KT P6SM FEW250
  FM220300 35004KT P6SM FEW250
  FM221500 VRB03KT P6SM FEW250


KDEN 212357Z 2200/2306 03006KT P6SM BKN120 BKN180
  FM220100 VRB05KT P6SM SCT120 BKN180
  FM220400 20008KT P6SM FEW120 BKN200
  FM221700 30012KT P6SM FEW140 BKN200
  FM222000 32014G24KT P6SM FEW080 FEW220
  FM230100 VRB06KT P6SM FEW090 FEW220
  FM230400 15006KT P6SM FEW220


KDFW 212330Z 2200/2306 12011KT P6SM BKN200
  FM220600 15010KT P6SM -RA OVC045
  FM221000 14013KT 5SM -RA OVC011
  FM221500 15012KT 3SM -RA BR OVC005
  FM221900 15011KT 3SM -RA BR OVC003
  FM230000 15010KT 1SM BR OVC003


KDTW 212350Z 2200/2306 21008KT P6SM SCT025 BKN250
  FM220500 23006KT P6SM BKN200
  FM221400 21012KT P6SM BKN200


KEWR 212320Z 2200/2306 33008KT P6SM SCT250
  TEMPO 2200/2202 SCT120
  FM220200 34005KT P6SM SCT250
  TEMPO 2208/2210 SCT100
  FM221200 VRB03KT P6SM SKC
  FM221800 25005KT P6SM SKC
  FM230200 24003KT P6SM SKC


KFLL 212343Z 2200/2306 32012KT P6SM FEW030 SCT050
  FM221500 33015G25KT P6SM FEW050 SCT250
  FM221800 01014G24KT P6SM SCT030 SCT050
  FM230000 05011KT P6SM FEW040 SCT060


KIAD 212342Z 2200/2306 35007KT P6SM FEW250
  FM220200 35003KT P6SM FEW250
  FM221200 VRB03KT P6SM SKC


KIAH 212324Z 2200/2306 11008KT P6SM BKN250
  FM221100 09010KT P6SM VCSH OVC080
  FM221300 09010KT 6SM -SHRA OVC050
  FM221600 10011KT 6SM SHRA OVC015
  FM221800 12013KT 4SM SHRA BR OVC008
  FM230000 14015KT 2SM SHRA BR OVC006


KJFK 212320Z 2200/2306 34009KT P6SM FEW250
  TEMPO 2200/2202 SCT120
  FM220200 34005KT P6SM SCT250
  FM221900 26005KT P6SM SKC
  FM230200 VRB01KT P6SM SKC


KLAS 212320Z 2200/2306 VRB06KT P6SM SCT120 BKN200
  FM220100 22005KT P6SM FEW100 SCT200
  FM221000 VRB05KT P6SM FEW080 BKN250
  FM221900 05005KT P6SM SCT120 SCT250


KLAX 212333Z 2200/2306 25010KT P6SM FEW020 SCT250
  FM220500 27006KT P6SM BKN025
  FM220900 05004KT 6SM BR OVC015
  FM221800 VRB03KT 5SM HZ BKN025
  FM222000 26008KT P6SM BKN250
  FM230300 28004KT P6SM SCT250


KLGA 212320Z 2200/2306 33007KT P6SM FEW250
  TEMPO 2200/2202 SCT120
  FM220200 35005KT P6SM SCT250
  FM221400 36002KT P6SM FEW250
  FM221800 24004KT P6SM SKC
  FM230200 VRB02KT P6SM SKC


KMCO 212321Z 2200/2306 34014G22KT P6SM FEW040
  FM221500 35015G23KT P6SM SCT035
  FM221800 01017G25KT P6SM BKN035
  FM230000 36012KT P6SM BKN035


KMDW 220059Z 2201/2306 20009KT P6SM BKN250
  FM220300 20012G19KT P6SM BKN200
  FM222200 19012KT P6SM BKN060 OVC150


KMEM 212325Z 2200/2306 04003KT P6SM FEW250
  FM220900 00000KT P6SM BKN250
  FM221500 15005KT P6SM OVC250
  FM230000 14005KT P6SM OVC150
  FM230500 14004KT P6SM OVC070


KMIA 212343Z 2200/2306 32012G22KT P6SM SCT030 SCT050
  FM220200 31010KT P6SM FEW030 SCT050
  FM221500 34012G22KT P6SM FEW050 SCT250
  FM221900 02011G21KT P6SM SCT030 SCT050
  FM230200 05011KT P6SM FEW040 SCT060


KMSP 212330Z 2200/2306 19012G20KT P6SM BKN250 WS020/21045KT
  FM220700 19010KT P6SM VCSH SCT030 OVC060 WS020/22040KT
  PROB30 2209/2213 4SM -FZRASN BR BKN030
  FM221300 19007KT 5SM BR OVC025
  FM221600 20008KT 5SM BR OVC008


KORD 220059Z 2201/2306 20009KT P6SM BKN250
  FM220300 20012G19KT P6SM BKN200
  FM222200 19012KT P6SM BKN100


KPDX 220109Z 2201/2224 18009KT P6SM VCSH SCT025 BKN040
  FM220900 18008KT P6SM -RA OVC050
  FM221500 17013G22KT 6SM -RA BR OVC025


KPHL 212321Z 2200/2306 32005KT P6SM BKN250
  FM220300 VRB03KT P6SM SCT250
  FM221600 25005KT P6SM SKC


KPHX 212342Z 2200/2306 VRB04KT 6SM BR VCSH SCT015 BKN025 OVC070
  FM220400 VRB05KT P6SM FEW020 BKN040
  FM221100 12004KT 5SM BR SCT015
  FM221400 VRB04KT 3SM BR BKN015
  FM221700 25005KT P6SM FEW015 FEW250


KPIT 212327Z 2200/2306 30003KT P6SM SCT120
  FM221400 18003KT P6SM SKC


KSAN 220124Z 2201/2306 VRB04KT P6SM BKN021
  TEMPO 2203/2206 SCT021
  FM221700 27005KT P6SM SCT025
  FM222000 27008KT P6SM SCT025
  FM230100 VRB04KT P6SM SCT025


KSEA 212324Z 2200/2306 19015G25KT 6SM -RA BR SCT025 OVC040
  FM220500 19012G20KT P6SM -SHRA OVC025
  FM221400 16008KT 5SM -RA BR OVC020


KSFO 220020Z 2200/2306 15012G20KT 5SM HZ FEW005 OVC021
  TEMPO 2200/2204 15009KT 2SM -SHRA FEW005 OVC017
  FM220600 18005KT P6SM VCSH BKN030 BKN050 OVC080
  FM221100 VRB03KT 6SM BR FEW022 BKN030 BKN050
  FM221500 08005KT 6SM BR SCT030 BKN050 BKN080
  FM221900 VRB03KT P6SM FEW030 BKN050 BKN080
  FM222200 28008KT P6SM SCT040 BKN080


KSLC 220118Z 2201/2306 25005KT 4SM HZ OVC090
  FM220300 14005KT 4SM HZ FEW060 BKN090
  FM220600 15005KT 4SM -SHSN SCT040 OVC060
  FM221400 32006KT 6SM HZ VCSH SCT030 BKN050 OVC200


KSTL 212333Z 2200/2306 15009KT P6SM BKN250
  FM222100 16010KT P6SM OVC120
  FM230100 16009KT P6SM -RAPL OVC030


KTPA 220058Z 2201/2306 36012G17KT P6SM SKC
  FM221200 02010G15KT P6SM SKC
  FM221800 35012G18KT P6SM FEW050